createdAt,value
2018-05-25T00:02:22.385Z,9.90
2018-05-25T00:04:51.168Z,9.80
2018-05-25T00:07:18.696Z,10.20
2018-05-25T00:09:46.218Z,9.40
2018-05-25T00:12:13.800Z,10.60
2018-05-25T00:14:41.326Z,9.43
2018-05-25T00:17:08.963Z,9.87
2018-05-25T00:19:36.484Z,10.00
2018-05-25T00:22:04.274Z,11.03
2018-05-25T00:24:31.805Z,10.67
2018-05-25T00:26:59.333Z,11.63
2018-05-25T00:29:26.883Z,11.50
2018-05-25T00:31:54.408Z,12.27
2018-05-25T00:34:21.969Z,11.03
2018-05-25T00:36:49.489Z,9.90
2018-05-25T00:39:17.253Z,10.30
2018-05-25T00:41:44.775Z,11.73
2018-05-25T00:44:12.348Z,9.97
2018-05-25T00:46:39.897Z,11.40
2018-05-25T00:49:07.449Z,11.70
2018-05-25T00:51:35.005Z,10.87
2018-05-25T00:54:02.535Z,9.83
2018-05-25T00:56:30.101Z,11.47
2018-05-25T00:58:57.628Z,11.67
2018-05-25T01:01:25.155Z,12.10
2018-05-25T01:03:52.720Z,11.20
2018-05-25T01:06:20.255Z,9.57
2018-05-25T01:08:47.816Z,10.13
2018-05-25T01:11:15.352Z,10.77
2018-05-25T01:13:43.012Z,10.73
2018-05-25T01:16:10.536Z,10.67
2018-05-25T01:18:38.061Z,10.73
2018-05-25T01:21:05.624Z,11.77
2018-05-25T01:23:33.153Z,10.40
2018-05-25T01:26:00.706Z,11.13
2018-05-25T01:28:28.234Z,11.70
2018-05-25T01:30:56.136Z,12.17
2018-05-25T01:33:23.660Z,11.23
2018-05-25T01:35:51.181Z,11.47
2018-05-25T01:38:18.738Z,11.23
2018-05-25T01:40:46.269Z,11.77
2018-05-25T01:43:13.816Z,13.03
2018-05-25T01:45:41.341Z,13.97
2018-05-25T01:48:08.901Z,13.17
2018-05-25T01:50:36.420Z,14.93
2018-05-25T01:53:03.960Z,13.30
2018-05-25T01:55:31.516Z,12.77
2018-05-25T01:57:59.041Z,14.47
2018-05-25T02:00:26.593Z,13.37
2018-05-25T02:02:54.127Z,14.53
2018-05-25T02:05:21.974Z,14.60
2018-05-25T02:07:49.516Z,16.33
2018-05-25T02:10:17.040Z,14.37
2018-05-25T02:12:44.889Z,14.73
2018-05-25T02:15:12.755Z,14.97
2018-05-25T02:17:40.308Z,15.57
2018-05-25T02:20:07.831Z,16.97
2018-05-25T02:22:35.401Z,14.40
2018-05-25T02:25:02.933Z,15.70
2018-05-25T02:27:30.464Z,14.90
2018-05-25T02:29:58.022Z,15.43
2018-05-25T02:32:25.561Z,15.30
2018-05-25T02:34:53.128Z,15.43
2018-05-25T02:37:20.668Z,15.33
2018-05-25T02:39:48.212Z,14.83
2018-05-25T02:42:15.765Z,14.37
2018-05-25T02:44:43.289Z,13.50
2018-05-25T02:47:10.841Z,15.20
2018-05-25T02:49:38.365Z,15.90
2018-05-25T02:52:05.918Z,15.60
2018-05-25T02:54:33.446Z,15.00
2018-05-25T02:57:00.975Z,16.47
2018-05-25T02:59:28.535Z,16.43
2018-05-25T03:01:56.064Z,15.27
2018-05-25T03:04:24.008Z,15.73
2018-05-25T03:06:51.537Z,16.17
2018-05-25T03:09:19.060Z,16.83
2018-05-25T03:11:46.612Z,17.87
2018-05-25T03:14:14.141Z,17.80
2018-05-25T03:16:41.717Z,19.30
2018-05-25T03:19:09.252Z,19.30
2018-05-25T03:21:36.782Z,19.53
2018-05-25T03:24:04.336Z,19.77
2018-05-25T03:26:31.869Z,18.33
2018-05-25T03:28:59.536Z,18.60
2018-05-25T03:31:27.122Z,17.30
2018-05-25T03:33:54.649Z,19.03
2018-05-25T03:36:22.200Z,17.30
2018-05-25T03:38:49.721Z,18.13
2018-05-25T03:41:17.264Z,16.63
2018-05-25T03:43:44.784Z,17.40
2018-05-25T03:46:12.505Z,16.03
2018-05-25T03:48:40.036Z,17.70
2018-05-25T03:51:07.788Z,18.37
2018-05-25T03:53:35.345Z,18.60
2018-05-25T03:56:02.865Z,19.47
2018-05-25T03:58:42.392Z,22.07
2018-05-25T04:01:21.785Z,20.57
2018-05-25T04:03:49.341Z,21.70
2018-05-25T04:06:16.885Z,21.20
2018-05-25T04:08:44.452Z,20.20
2018-05-25T04:11:11.982Z,21.10
2018-05-25T04:13:39.507Z,20.87
2018-05-25T04:16:07.056Z,20.57
2018-05-25T04:18:34.577Z,20.67
2018-05-25T04:21:02.171Z,22.10
2018-05-25T04:23:29.717Z,21.57
2018-05-25T04:25:57.281Z,23.37
2018-05-25T04:28:24.805Z,22.13
2018-05-25T04:30:52.340Z,21.03
2018-05-25T04:33:19.897Z,21.67
2018-05-25T04:35:48.403Z,21.53
2018-05-25T04:38:15.967Z,21.87
2018-05-25T04:40:43.490Z,21.13
2018-05-25T04:43:11.181Z,19.60
2018-05-25T04:45:38.776Z,18.50
2018-05-25T04:48:06.302Z,20.07
2018-05-25T04:50:33.845Z,20.13
2018-05-25T04:53:01.374Z,21.70
2018-05-25T04:55:28.932Z,19.33
2018-05-25T04:57:56.456Z,21.43
2018-05-25T05:00:24.184Z,23.00
2018-05-25T05:02:51.724Z,20.80
2018-05-25T05:05:19.265Z,21.50
2018-05-25T05:07:46.808Z,22.60
2018-05-25T05:10:14.344Z,20.50
2018-05-25T05:12:41.998Z,20.40
2018-05-25T05:15:09.530Z,20.03
2018-05-25T05:17:37.300Z,18.07
2018-05-25T05:20:04.829Z,20.90
2018-05-25T05:22:32.366Z,18.87
2018-05-25T05:24:59.933Z,18.77
2018-05-25T05:27:27.456Z,18.57
2018-05-25T05:29:55.014Z,18.47
2018-05-25T05:32:22.539Z,17.03
2018-05-25T05:34:50.321Z,18.93
2018-05-25T05:37:17.853Z,17.97
2018-05-25T05:39:46.009Z,19.43
2018-05-25T05:42:13.568Z,19.73
2018-05-25T05:44:42.012Z,18.70
2018-05-25T05:47:09.569Z,17.60
2018-05-25T05:49:37.096Z,17.40
2018-05-25T05:52:04.676Z,18.50
2018-05-25T05:54:32.292Z,16.60
2018-05-25T05:56:59.821Z,17.20
2018-05-25T05:59:27.372Z,17.60
2018-05-25T06:01:54.914Z,16.87
2018-05-25T06:04:22.522Z,16.30
2018-05-25T06:06:50.004Z,15.20
2018-05-25T06:09:17.793Z,16.83
2018-05-25T06:11:45.321Z,14.20
2018-05-25T06:14:13.851Z,14.67
2018-05-25T06:16:41.409Z,15.57
2018-05-25T06:19:08.956Z,14.63
2018-05-25T06:21:36.516Z,13.73
2018-05-25T06:24:04.068Z,14.80
2018-05-25T06:26:31.632Z,12.57
2018-05-25T06:28:59.159Z,14.17
2018-05-25T06:31:26.685Z,13.33
2018-05-25T06:33:54.242Z,13.70
2018-05-25T06:36:22.807Z,14.00
2018-05-25T06:38:50.879Z,13.93
2018-05-25T06:41:18.424Z,12.50
2018-05-25T06:43:46.935Z,12.97
2018-05-25T06:46:14.457Z,13.87
2018-05-25T06:48:41.993Z,10.63
2018-05-25T06:51:09.617Z,12.07
2018-05-25T06:53:37.144Z,12.20
2018-05-25T06:56:04.715Z,13.03
2018-05-25T06:58:32.241Z,10.83
2018-05-25T07:00:59.812Z,12.80
2018-05-25T07:03:27.341Z,12.20
2018-05-25T07:05:54.864Z,10.60
2018-05-25T07:08:22.424Z,10.40
2018-05-25T07:10:49.948Z,10.97
2018-05-25T07:13:17.520Z,10.80
2018-05-25T07:15:46.010Z,10.97
2018-05-25T07:18:13.724Z,10.30
2018-05-25T07:20:41.252Z,11.00
2018-05-25T07:23:08.780Z,11.67
2018-05-25T07:25:36.328Z,12.03
2018-05-25T07:28:03.856Z,12.57
2018-05-25T07:30:31.421Z,13.53
2018-05-25T07:32:58.943Z,12.00
2018-05-25T07:35:26.525Z,13.43
2018-05-25T07:37:54.055Z,13.23
2018-05-25T07:40:21.583Z,13.27
2018-05-25T07:42:49.137Z,12.70
2018-05-25T07:45:16.669Z,14.07
2018-05-25T07:47:44.230Z,12.90
2018-05-25T07:50:11.766Z,12.90
2018-05-25T07:52:39.341Z,13.50
2018-05-25T07:55:06.861Z,12.47
2018-05-25T07:57:34.387Z,12.97
2018-05-25T08:00:01.943Z,13.23
2018-05-25T08:02:29.469Z,13.53
2018-05-25T08:04:58.007Z,14.60
2018-05-25T08:07:25.538Z,14.83
2018-05-25T08:09:53.105Z,13.67
2018-05-25T08:12:20.634Z,13.20
2018-05-25T08:14:48.168Z,13.47
2018-05-25T08:17:15.732Z,13.57
2018-05-25T08:19:43.252Z,15.17
2018-05-25T08:22:10.811Z,13.07
2018-05-25T08:24:38.333Z,13.43
2018-05-25T08:27:06.128Z,13.57
2018-05-25T08:29:33.821Z,12.63
2018-05-25T08:32:01.571Z,13.40
2018-05-25T08:34:29.141Z,12.63
2018-05-25T08:36:56.668Z,12.70
2018-05-25T08:39:24.225Z,10.57
2018-05-25T08:41:51.758Z,11.20
2018-05-25T08:44:19.321Z,12.47
2018-05-25T08:46:46.845Z,13.57
2018-05-25T08:49:14.364Z,10.40
2018-05-25T08:51:41.921Z,11.60
2018-05-25T08:54:09.441Z,11.90
2018-05-25T08:56:37.013Z,10.03
2018-05-25T08:59:04.548Z,10.00
2018-05-25T09:01:32.363Z,12.20
2018-05-25T09:03:59.891Z,10.80
2018-05-25T09:06:27.406Z,8.83
2018-05-25T09:08:54.961Z,12.50
2018-05-25T09:11:22.529Z,10.77
2018-05-25T09:13:50.108Z,10.53
2018-05-25T09:16:17.637Z,9.93
2018-05-25T09:18:45.209Z,12.27
2018-05-25T09:21:12.737Z,12.80
2018-05-25T09:23:40.261Z,12.07
2018-05-25T09:26:07.819Z,9.63
2018-05-25T09:28:35.352Z,8.83
2018-05-25T09:31:02.903Z,8.83
2018-05-25T09:33:30.423Z,8.27
2018-05-25T09:35:58.126Z,7.93
2018-05-25T09:38:25.640Z,8.90
2018-05-25T09:40:53.178Z,11.70
2018-05-25T09:43:20.726Z,10.20
2018-05-25T09:45:48.260Z,9.77
2018-05-25T09:48:15.800Z,7.63
2018-05-25T09:50:43.349Z,7.40
2018-05-25T09:53:11.319Z,7.70
2018-05-25T09:55:38.841Z,8.30
2018-05-25T09:58:06.356Z,7.70
2018-05-25T10:00:33.900Z,8.00
2018-05-25T10:03:01.424Z,7.40
2018-05-25T10:05:28.974Z,6.60
2018-05-25T10:07:56.520Z,6.83
2018-05-25T10:10:24.344Z,7.63
2018-05-25T10:12:51.873Z,6.07
2018-05-25T10:15:19.396Z,6.70
2018-05-25T10:17:46.941Z,6.80
2018-05-25T10:20:14.458Z,7.03
2018-05-25T10:22:42.021Z,6.70
2018-05-25T10:25:09.541Z,6.82
2018-05-25T10:27:37.251Z,5.15
2018-05-25T10:30:04.769Z,5.85
2018-05-25T10:32:32.298Z,6.65
2018-05-25T10:34:59.895Z,4.82
2018-05-25T10:37:27.383Z,4.40
2018-05-25T10:39:54.937Z,5.43
2018-05-25T10:42:22.481Z,4.80
2018-05-25T10:44:50.337Z,3.53
2018-05-25T10:47:17.882Z,2.90
2018-05-25T10:49:45.417Z,4.20
2018-05-25T10:52:13.153Z,5.28
2018-05-25T10:54:40.669Z,5.18
2018-05-25T10:57:08.192Z,4.57
2018-05-25T10:59:35.756Z,4.57
2018-05-25T11:02:03.273Z,4.35
2018-05-25T11:04:31.260Z,4.68
2018-05-25T11:06:58.784Z,4.37
2018-05-25T11:09:26.300Z,4.57
2018-05-25T11:11:53.852Z,4.47
2018-05-25T11:14:21.384Z,4.70
2018-05-25T11:16:49.284Z,3.70
2018-05-25T11:19:16.796Z,3.78
2018-05-25T11:21:44.331Z,3.90
2018-05-25T11:24:11.896Z,3.83
2018-05-25T11:26:39.411Z,5.57
2018-05-25T11:29:07.164Z,3.47
2018-05-25T11:31:34.689Z,3.10
2018-05-25T11:34:02.216Z,3.80
2018-05-25T11:36:29.761Z,3.50
2018-05-25T11:38:57.289Z,2.87
2018-05-25T11:41:25.805Z,2.58
2018-05-25T11:43:53.320Z,3.72
2018-05-25T11:46:21.080Z,2.53
2018-05-25T11:48:48.597Z,2.80
2018-05-25T11:51:16.108Z,2.83
2018-05-25T11:53:43.652Z,2.80
2018-05-25T11:56:11.176Z,2.40
2018-05-25T11:58:38.717Z,2.00
2018-05-25T12:01:06.244Z,1.95
2018-05-25T12:03:33.986Z,3.00
2018-05-25T12:06:01.504Z,2.53
2018-05-25T12:08:29.025Z,1.98
2018-05-25T12:10:56.616Z,2.30
2018-05-25T12:13:24.128Z,2.20
2018-05-25T12:15:51.772Z,2.10
2018-05-25T12:18:19.309Z,2.80
2018-05-25T12:20:46.852Z,2.10
2018-05-25T12:23:14.365Z,2.80
2018-05-25T12:25:43.001Z,3.10
2018-05-25T12:28:10.559Z,3.08
2018-05-25T12:30:38.936Z,3.45
2018-05-25T12:33:06.670Z,2.87
2018-05-25T12:35:34.743Z,2.58
2018-05-25T12:38:03.365Z,3.03
2018-05-25T12:40:31.535Z,2.90
2018-05-25T12:42:59.370Z,2.47
2018-05-25T12:45:26.949Z,2.55
2018-05-25T12:47:54.688Z,2.83
2018-05-25T12:50:22.584Z,2.97
2018-05-25T12:52:51.340Z,2.75
2018-05-25T12:55:19.138Z,2.90
2018-05-25T12:57:46.712Z,3.28
2018-05-25T13:00:15.829Z,2.95
2018-05-25T13:02:46.099Z,3.60
2018-05-25T13:05:14.308Z,3.47
2018-05-25T13:07:41.888Z,3.30
2018-05-25T13:10:10.529Z,3.87
2018-05-25T13:12:38.484Z,3.05
2018-05-25T13:15:07.089Z,3.40
2018-05-25T13:17:34.676Z,3.22
2018-05-25T13:20:03.161Z,2.95
2018-05-25T13:22:30.732Z,2.50
2018-05-25T13:25:00.596Z,2.77
2018-05-25T13:27:28.109Z,3.30
2018-05-25T13:29:55.931Z,3.07
2018-05-25T13:32:23.484Z,3.87
2018-05-25T13:34:51.351Z,3.20
2018-05-25T13:37:19.400Z,3.57
2018-05-25T13:39:47.683Z,3.27
2018-05-25T13:42:16.236Z,3.70
2018-05-25T13:44:44.661Z,3.53
2018-05-25T13:47:13.361Z,3.27
2018-05-25T13:49:40.883Z,3.90
2018-05-25T13:52:09.467Z,3.73
2018-05-25T13:54:37.097Z,3.23
2018-05-25T13:57:04.704Z,3.43
2018-05-25T13:59:33.088Z,4.50
2018-05-25T14:02:00.656Z,3.00
2018-05-25T14:04:28.580Z,3.50
2018-05-25T14:06:58.025Z,3.80
2018-05-25T14:09:28.240Z,3.00
2018-05-25T14:11:55.826Z,3.53
2018-05-25T14:14:23.873Z,3.57
2018-05-25T14:16:51.627Z,3.10
2018-05-25T14:19:20.168Z,3.47
2018-05-25T14:21:48.509Z,3.10
2018-05-25T14:24:17.079Z,3.13
2018-05-25T14:26:44.828Z,3.53
2018-05-25T14:29:13.094Z,3.30
2018-05-25T14:31:42.319Z,3.20
2018-05-25T14:34:09.864Z,3.27
2018-05-25T14:36:38.444Z,3.30
2018-05-25T14:39:07.046Z,3.50
2018-05-25T14:41:36.215Z,4.40
2018-05-25T14:44:04.518Z,2.83
2018-05-25T14:46:32.061Z,5.77
2018-05-25T14:49:00.320Z,5.70
2018-05-25T14:51:29.123Z,4.90
2018-05-25T14:53:56.836Z,3.53
2018-05-25T14:56:24.548Z,2.97
2018-05-25T14:58:53.152Z,4.03
2018-05-25T15:01:22.218Z,4.27
2018-05-25T15:03:50.830Z,2.80
2018-05-25T15:06:18.720Z,2.93
2018-05-25T15:08:46.433Z,2.87
2018-05-25T15:11:14.824Z,3.00
2018-05-25T15:13:42.708Z,2.90
2018-05-25T15:16:10.573Z,2.90
2018-05-25T15:18:38.432Z,3.03
2018-05-25T15:21:06.239Z,2.90
2018-05-25T15:23:37.055Z,3.10
2018-05-25T15:26:04.919Z,3.40
2018-05-25T15:28:34.012Z,3.00
2018-05-25T15:31:02.455Z,3.20
2018-05-25T15:33:32.601Z,3.27
2018-05-25T15:36:01.071Z,3.23
2018-05-25T15:38:28.677Z,3.80
2018-05-25T15:40:57.126Z,3.20
2018-05-25T15:43:24.849Z,2.77
2018-05-25T15:45:52.485Z,3.17
2018-05-25T15:48:20.100Z,3.00
2018-05-25T15:50:47.761Z,2.83
2018-05-25T15:53:15.520Z,3.47
2018-05-25T15:55:43.056Z,3.30
2018-05-25T15:58:10.585Z,3.57
2018-05-25T16:00:43.712Z,3.00
2018-05-25T16:03:11.225Z,3.53
2018-05-25T16:05:38.769Z,3.97
2018-05-25T16:08:06.370Z,3.03
2018-05-25T16:10:36.214Z,2.93
2018-05-25T16:13:11.901Z,2.60
2018-05-25T16:15:39.832Z,3.20
2018-05-25T16:18:07.358Z,3.70
2018-05-25T16:20:34.872Z,3.10
2018-05-25T16:23:02.416Z,2.60
2018-05-25T16:25:29.928Z,3.10
2018-05-25T16:27:57.468Z,2.80
2018-05-25T16:30:24.986Z,2.80
2018-05-25T16:32:52.524Z,2.90
2018-05-25T16:35:20.452Z,3.50
2018-05-25T16:37:47.969Z,2.60
2018-05-25T16:40:15.570Z,3.20
2018-05-25T16:42:43.062Z,3.50
2018-05-25T16:45:10.616Z,3.27
2018-05-25T16:47:38.132Z,2.70
2018-05-25T16:50:05.745Z,3.20
2018-05-25T16:52:33.225Z,2.70
2018-05-25T16:55:00.744Z,3.50
2018-05-25T16:57:29.848Z,3.27
2018-05-25T16:59:57.473Z,3.30
2018-05-25T17:02:25.005Z,3.03
2018-05-25T17:04:52.556Z,3.30
2018-05-25T17:07:26.501Z,3.07
2018-05-25T17:09:54.054Z,3.40
2018-05-25T17:12:21.596Z,3.20
2018-05-25T17:15:02.318Z,2.63
2018-05-25T17:17:29.846Z,3.60
2018-05-25T17:19:57.397Z,3.10
2018-05-25T17:22:24.937Z,3.40
2018-05-25T17:24:52.480Z,2.97
2018-05-25T17:27:20.021Z,3.23
2018-05-25T17:29:47.549Z,3.17
2018-05-25T17:32:15.129Z,4.80
2018-05-25T17:34:42.641Z,3.20
2018-05-25T17:37:10.692Z,4.53
2018-05-25T17:39:38.216Z,4.53
2018-05-25T17:42:09.155Z,4.40
2018-05-25T17:44:36.705Z,2.80
2018-05-25T17:47:04.226Z,3.07
2018-05-25T17:49:31.902Z,3.33
2018-05-25T17:52:00.496Z,2.80
2018-05-25T17:54:31.188Z,3.80
2018-05-25T17:56:58.804Z,2.90
2018-05-25T17:59:26.280Z,3.60
2018-05-25T18:01:53.829Z,3.20
2018-05-25T18:04:21.368Z,3.40
2018-05-25T18:06:48.968Z,3.43
2018-05-25T18:09:16.467Z,3.80
2018-05-25T18:11:44.329Z,3.43
2018-05-25T18:14:11.990Z,4.87
2018-05-25T18:16:39.505Z,3.80
2018-05-25T18:19:07.044Z,3.50
2018-05-25T18:21:34.561Z,3.80
2018-05-25T18:24:02.112Z,4.00
2018-05-25T18:26:29.629Z,4.67
2018-05-25T18:28:58.335Z,4.13
2018-05-25T18:31:25.911Z,4.23
2018-05-25T18:33:53.471Z,5.10
2018-05-25T18:36:21.190Z,4.37
2018-05-25T18:38:48.780Z,5.20
2018-05-25T18:41:16.474Z,4.93
2018-05-25T18:43:44.116Z,5.00
2018-05-25T18:46:11.672Z,5.00
2018-05-25T18:48:39.184Z,5.30
2018-05-25T18:51:06.767Z,4.63
2018-05-25T18:53:34.431Z,5.30
2018-05-25T18:56:02.204Z,5.00
2018-05-25T18:58:29.900Z,5.80
2018-05-25T19:00:57.563Z,5.83
2018-05-25T19:03:25.335Z,6.33
2018-05-25T19:05:53.298Z,6.73
2018-05-25T19:08:20.979Z,6.27
2018-05-25T19:10:48.881Z,5.70
2018-05-25T19:13:16.690Z,6.37
2018-05-25T19:15:44.557Z,4.93
2018-05-25T19:18:12.203Z,6.00
2018-05-25T19:20:39.882Z,5.30
2018-05-25T19:23:07.645Z,5.90
2018-05-25T19:25:35.305Z,6.23
2018-05-25T19:28:02.916Z,5.83
2018-05-25T19:30:30.593Z,7.17
2018-05-25T19:32:58.588Z,6.93
2018-05-25T19:35:26.232Z,6.47
2018-05-25T19:37:54.121Z,7.27
2018-05-25T19:40:21.688Z,7.20
2018-05-25T19:42:49.344Z,7.40
2018-05-25T19:45:17.059Z,7.27
2018-05-25T19:47:44.737Z,7.97
2018-05-25T19:50:12.437Z,7.40
2018-05-25T19:52:40.816Z,7.40
2018-05-25T19:55:08.785Z,6.50
2018-05-25T19:57:36.588Z,7.53
2018-05-25T20:00:04.416Z,6.83
2018-05-25T20:02:32.059Z,6.60
2018-05-25T20:05:00.047Z,7.20
2018-05-25T20:07:27.718Z,6.50
2018-05-25T20:09:55.465Z,7.30
2018-05-25T20:12:23.062Z,7.73
2018-05-25T20:14:50.795Z,6.40
2018-05-25T20:17:18.560Z,7.13
2018-05-25T20:19:46.223Z,6.30
2018-05-25T20:22:14.191Z,6.60
2018-05-25T20:24:42.130Z,7.50
2018-05-25T20:27:10.758Z,7.50
2018-05-25T20:29:40.956Z,6.03
2018-05-25T20:32:10.063Z,7.17
2018-05-25T20:34:40.156Z,8.50
2018-05-25T20:37:09.444Z,6.87
2018-05-25T20:39:38.268Z,6.50
2018-05-25T20:42:07.678Z,6.70
2018-05-25T20:44:35.333Z,7.00
2018-05-25T20:47:02.929Z,6.43
2018-05-25T20:49:33.850Z,5.90
2018-05-25T20:52:02.784Z,7.33
2018-05-25T20:54:30.483Z,6.60
2018-05-25T20:56:58.351Z,6.63
2018-05-25T20:59:26.867Z,6.40
2018-05-25T21:01:56.237Z,6.20
2018-05-25T21:04:24.905Z,7.10
2018-05-25T21:06:53.252Z,6.80
2018-05-25T21:09:20.944Z,6.73
2018-05-25T21:11:48.486Z,7.03
2018-05-25T21:14:16.815Z,7.13
2018-05-25T21:16:44.569Z,7.67
2018-05-25T21:19:12.101Z,6.90
2018-05-25T21:21:39.652Z,6.47
2018-05-25T21:24:07.207Z,8.03
2018-05-25T21:26:34.992Z,7.00
2018-05-25T21:29:03.594Z,6.27
2018-05-25T21:31:31.560Z,7.33
2018-05-25T21:34:00.225Z,6.97
2018-05-25T21:36:27.762Z,7.60
2018-05-25T21:38:55.414Z,6.93
2018-05-25T21:41:22.937Z,7.57
2018-05-25T21:43:50.835Z,7.30
2018-05-25T21:46:18.383Z,7.10
2018-05-25T21:48:45.939Z,6.87
2018-05-25T21:51:13.513Z,6.70
2018-05-25T21:53:41.069Z,7.60
2018-05-25T21:56:08.629Z,6.70
2018-05-25T21:58:36.161Z,7.30
2018-05-25T22:01:03.741Z,8.10
2018-05-25T22:03:31.273Z,8.37
2018-05-25T22:05:58.792Z,8.40
2018-05-25T22:08:26.341Z,7.70
2018-05-25T22:10:53.857Z,7.73
2018-05-25T22:13:21.405Z,8.37
2018-05-25T22:15:48.945Z,8.00
2018-05-25T22:18:17.236Z,7.63
2018-05-25T22:20:44.781Z,7.50
2018-05-25T22:23:13.436Z,8.40
2018-05-25T22:25:40.981Z,7.63
2018-05-25T22:28:08.517Z,8.00
2018-05-25T22:30:36.066Z,7.40
2018-05-25T22:33:04.341Z,8.10
2018-05-25T22:35:32.090Z,7.27
2018-05-25T22:37:59.609Z,8.43
2018-05-25T22:40:27.128Z,7.00
2018-05-25T22:43:06.488Z,7.37
2018-05-25T22:45:45.784Z,7.10
2018-05-25T22:48:25.057Z,8.20
2018-05-25T22:51:04.445Z,7.73
2018-05-25T22:53:37.194Z,8.23
2018-05-25T22:56:04.756Z,8.43
2018-05-25T22:58:33.848Z,8.80
2018-05-25T23:01:01.508Z,8.20
2018-05-25T23:03:29.069Z,8.73
2018-05-25T23:05:56.605Z,8.60
2018-05-25T23:08:24.317Z,8.67
2018-05-25T23:10:51.837Z,9.47
2018-05-25T23:13:19.370Z,8.27
2018-05-25T23:15:46.920Z,8.70
2018-05-25T23:18:14.438Z,8.03
2018-05-25T23:20:41.981Z,8.00
2018-05-25T23:23:09.512Z,9.07
2018-05-25T23:25:37.332Z,8.93
2018-05-25T23:28:05.757Z,8.20
2018-05-25T23:30:33.904Z,8.27
2018-05-25T23:33:01.481Z,7.50
2018-05-25T23:35:29.003Z,7.33
2018-05-25T23:37:56.564Z,8.57
2018-05-25T23:40:24.084Z,9.33
2018-05-25T23:42:51.779Z,8.80
2018-05-25T23:45:19.301Z,8.80
2018-05-25T23:47:47.915Z,8.60
2018-05-25T23:50:15.467Z,8.07
2018-05-25T23:52:42.984Z,8.20
2018-05-25T23:55:10.541Z,8.23
2018-05-25T23:57:38.065Z,9.27
